Wetterdaten: aktuell Dienstag, 22.01.2019 12:25
Datum Zeit Temp. A. Feuchte A. Luftdruck Regen Wind Richtung Richtung Taupunkt Windchill Windben
22.01.2019 12:25 -1,9 C 85 % 1011,8 hPa 0,0 l/m 7,8 km/h (2 Bft) S 183 -4,1 C -3,4 C 11,3 km/h (2 Bft)
22.01.2019 12:20 -2,0 C 85 % 1012,0 hPa 0,0 l/m 5,5 km/h (1 Bft) S-SW 195 -4,2 C -2,0 C 11,3 km/h (2 Bft)
22.01.2019 12:15 -2,1 C 86 % 1012,2 hPa 0,0 l/m 6,8 km/h (2 Bft) S 184 -4,1 C -2,5 C 9,7 km/h (2 Bft)
22.01.2019 12:10 -2,1 C 86 % 1012,2 hPa 0,0 l/m 8,6 km/h (2 Bft) S 171 -4,1 C -4,5 C 12,9 km/h (3 Bft)
22.01.2019 12:05 -2,1 C 86 % 1012,3 hPa 0,0 l/m 7,1 km/h (2 Bft) S 183 -4,1 C -2,9 C 11,3 km/h (2 Bft)
22.01.2019 12:00 -2,1 C 86 % 1012,4 hPa 0,0 l/m 8,1 km/h (2 Bft) S-SO 167 -4,1 C -4,0 C 14,5 km/h (3 Bft)
22.01.2019 11:55 -2,1 C 86 % 1012,5 hPa 0,0 l/m 7,7 km/h (2 Bft) S 190 -4,1 C -3,5 C 12,9 km/h (3 Bft)
22.01.2019 11:50 -2,2 C 87 % 1012,6 hPa 0,0 l/m 8,4 km/h (2 Bft) S 174 -4,1 C -4,4 C 14,5 km/h (3 Bft)
22.01.2019 11:45 -2,2 C 86 % 1012,6 hPa 0,0 l/m 10,0 km/h (2 Bft) S 175 -4,2 C -5,9 C 19,3 km/h (3 Bft)
22.01.2019 11:40 -2,2 C 87 % 1012,8 hPa 0,0 l/m 8,7 km/h (2 Bft) S 185 -4,1 C -4,7 C 17,7 km/h (3 Bft)
22.01.2019 11:35 -2,3 C 87 % 1012,9 hPa 0,0 l/m 6,5 km/h (2 Bft) S 184 -4,2 C -2,4 C 11,3 km/h (2 Bft)
22.01.2019 11:30 -2,3 C 87 % 1013,0 hPa 0,0 l/m 8,4 km/h (2 Bft) S 189 -4,2 C -4,5 C 16,1 km/h (3 Bft)
22.01.2019 11:25 -2,3 C 87 % 1013,1 hPa 0,0 l/m 9,5 km/h (2 Bft) S 179 -4,2 C -5,5 C 14,5 km/h (3 Bft)
22.01.2019 11:20 -2,4 C 87 % 1013,1 hPa 0,0 l/m 8,9 km/h (2 Bft) S-SW 199 -4,3 C -5,1 C 14,5 km/h (3 Bft)
22.01.2019 11:15 -2,4 C 88 % 1013,3 hPa 0,0 l/m 6,2 km/h (2 Bft) S 183 -4,1 C -2,4 C 12,9 km/h (3 Bft)
22.01.2019 11:10 -2,4 C 88 % 1013,3 hPa 0,0 l/m 5,2 km/h (1 Bft) S 182 -4,1 C -2,4 C 9,7 km/h (2 Bft)
22.01.2019 11:05 -2,4 C 88 % 1013,3 hPa 0,0 l/m 9,5 km/h (2 Bft) S 186 -4,1 C -5,6 C 12,9 km/h (3 Bft)
22.01.2019 11:00 -2,4 C 88 % 1013,3 hPa 0,0 l/m 6,7 km/h (2 Bft) S 180 -4,1 C -2,7 C 12,9 km/h (3 Bft)
22.01.2019 10:55 -2,5 C 88 % 1013,3 hPa 0,0 l/m 6,1 km/h (2 Bft) S 185 -4,2 C -2,5 C 9,7 km/h (2 Bft)
22.01.2019 10:50 -2,5 C 88 % 1013,5 hPa 0,0 l/m 5,2 km/h (1 Bft) S 185 -4,2 C -2,5 C 8,0 km/h (2 Bft)
22.01.2019 10:45 -2,5 C 88 % 1013,4 hPa 0,0 l/m 7,0 km/h (2 Bft) S 180 -4,2 C -3,2 C 11,3 km/h (2 Bft)
22.01.2019 10:40 -2,6 C 88 % 1013,5 hPa 0,0 l/m 6,6 km/h (2 Bft) S 187 -4,3 C -2,8 C 11,3 km/h (2 Bft)
22.01.2019 10:35 -2,5 C 88 % 1013,6 hPa 0,0 l/m 8,2 km/h (2 Bft) S 183 -4,2 C -4,5 C 11,3 km/h (2 Bft)
22.01.2019 10:30 -2,5 C 88 % 1013,6 hPa 0,0 l/m 7,6 km/h (2 Bft) S 178 -4,2 C -3,8 C 11,3 km/h (2 Bft)
22.01.2019 10:25 -2,5 C 88 % 1013,7 hPa 0,0 l/m 8,0 km/h (2 Bft) S-SW 206 -4,2 C -4,3 C 16,1 km/h (3 Bft)
22.01.2019 10:20 -2,5 C 88 % 1013,6 hPa 0,0 l/m 8,4 km/h (2 Bft) S 181 -4,2 C -4,7 C 12,9 km/h (3 Bft)
22.01.2019 10:15 -2,6 C 88 % 1013,6 hPa 0,0 l/m 7,2 km/h (2 Bft) S 180 -4,3 C -3,5 C 11,3 km/h (2 Bft)
22.01.2019 10:10 -2,6 C 88 % 1013,7 hPa 0,0 l/m 7,8 km/h (2 Bft) S 184 -4,3 C -4,2 C 14,5 km/h (3 Bft)
22.01.2019 10:05 -2,7 C 89 % 1013,7 hPa 0,0 l/m 10,9 km/h (2 Bft) S 182 -4,3 C -7,2 C 16,1 km/h (3 Bft)
22.01.2019 10:00 -2,7 C 89 % 1013,8 hPa 0,0 l/m 8,0 km/h (2 Bft) S 175 -4,3 C -4,5 C 11,3 km/h (2 Bft)
22.01.2019 09:55 -2,7 C 90 % 1013,8 hPa 0,0 l/m 6,8 km/h (2 Bft) S 173 -4,1 C -3,1 C 12,9 km/h (3 Bft)
22.01.2019 09:50 -2,8 C 90 % 1013,9 hPa 0,0 l/m 9,5 km/h (2 Bft) S 176 -4,2 C -6,1 C 14,5 km/h (3 Bft)
22.01.2019 09:45 -2,8 C 91 % 1013,9 hPa 0,0 l/m 8,0 km/h (2 Bft) S 178 -4,1 C -4,6 C 14,5 km/h (3 Bft)
22.01.2019 09:40 -2,8 C 91 % 1014,0 hPa 0,0 l/m 7,1 km/h (2 Bft) S 182 -4,1 C -3,6 C 12,9 km/h (3 Bft)
22.01.2019 09:35 -2,8 C 91 % 1014,2 hPa 0,0 l/m 7,6 km/h (2 Bft) S 186 -4,1 C -4,2 C 11,3 km/h (2 Bft)
22.01.2019 09:30 -2,8 C 91 % 1014,3 hPa 0,0 l/m 6,3 km/h (2 Bft) S 181 -4,1 C -2,8 C 9,7 km/h (2 Bft)
22.01.2019 09:25 -2,8 C 90 % 1014,3 hPa 0,0 l/m 7,2 km/h (2 Bft) S 184 -4,2 C -3,7 C 11,3 km/h (2 Bft)
22.01.2019 09:20 -2,8 C 90 % 1014,4 hPa 0,0 l/m 8,2 km/h (2 Bft) S 182 -4,2 C -4,8 C 11,3 km/h (2 Bft)
22.01.2019 09:15 -2,8 C 90 % 1014,5 hPa 0,0 l/m 6,0 km/h (2 Bft) S 180 -4,2 C -2,8 C 9,7 km/h (2 Bft)
22.01.2019 09:10 -2,8 C 90 % 1014,5 hPa 0,0 l/m 5,9 km/h (2 Bft) S 182 -4,2 C -2,8 C 9,7 km/h (2 Bft)
22.01.2019 09:05 -2,8 C 90 % 1014,6 hPa 0,0 l/m 7,4 km/h (2 Bft) S 181 -4,2 C -3,9 C 11,3 km/h (2 Bft)
22.01.2019 09:00 -2,8 C 90 % 1014,6 hPa 0,0 l/m 5,4 km/h (1 Bft) S 184 -4,2 C -2,8 C 11,3 km/h (2 Bft)
22.01.2019 08:55 -2,8 C 90 % 1014,6 hPa 0,0 l/m 5,4 km/h (1 Bft) S 184 -4,2 C -2,8 C 9,7 km/h (2 Bft)
22.01.2019 08:50 -2,8 C 90 % 1014,7 hPa 0,0 l/m 6,4 km/h (2 Bft) S 190 -4,2 C -2,8 C 9,7 km/h (2 Bft)
22.01.2019 08:45 -2,8 C 90 % 1014,6 hPa 0,0 l/m 5,2 km/h (1 Bft) S 184 -4,2 C -2,8 C 11,3 km/h (2 Bft)
22.01.2019 08:40 -2,8 C 90 % 1014,6 hPa 0,0 l/m 3,8 km/h (1 Bft) S 189 -4,2 C -2,8 C 6,4 km/h (2 Bft)
22.01.2019 08:35 -2,8 C 91 % 1014,6 hPa 0,0 l/m 5,0 km/h (1 Bft) S 183 -4,1 C -2,8 C 9,7 km/h (2 Bft)
22.01.2019 08:30 -2,9 C 91 % 1014,7 hPa 0,0 l/m 6,6 km/h (2 Bft) S 188 -4,2 C -3,1 C 9,7 km/h (2 Bft)
22.01.2019 08:25 -2,9 C 91 % 1014,7 hPa 0,0 l/m 5,9 km/h (2 Bft) S 183 -4,2 C -2,9 C 9,7 km/h (2 Bft)
22.01.2019 08:20 -2,9 C 91 % 1014,8 hPa 0,0 l/m 7,3 km/h (2 Bft) S 178 -4,2 C -3,9 C 11,3 km/h (2 Bft)
22.01.2019 08:15 -2,9 C 91 % 1014,8 hPa 0,0 l/m 6,4 km/h (2 Bft) S 180 -4,2 C -2,9 C 11,3 km/h (2 Bft)
22.01.2019 08:10 -2,9 C 91 % 1014,9 hPa 0,0 l/m 5,6 km/h (1 Bft) S 178 -4,2 C -2,9 C 9,7 km/h (2 Bft)
22.01.2019 08:05 -2,9 C 91 % 1014,9 hPa 0,0 l/m 7,0 km/h (2 Bft) S 179 -4,2 C -3,6 C 9,7 km/h (2 Bft)
22.01.2019 08:00 -2,9 C 91 % 1015,0 hPa 0,0 l/m 5,7 km/h (1 Bft) S 179 -4,2 C -2,9 C 9,7 km/h (2 Bft)
22.01.2019 07:55 -3,0 C 92 % 1015,0 hPa 0,0 l/m 4,3 km/h (1 Bft) S 184 -4,1 C -3,0 C 6,4 km/h (2 Bft)
22.01.2019 07:50 -3,1 C 92 % 1015,0 hPa 0,0 l/m 5,1 km/h (1 Bft) S 184 -4,2 C -3,1 C 8,0 km/h (2 Bft)
22.01.2019 07:45 -3,1 C 92 % 1015,0 hPa 0,0 l/m 4,3 km/h (1 Bft) S 182 -4,2 C -3,1 C 6,4 km/h (2 Bft)
22.01.2019 07:40 -3,1 C 92 % 1015,1 hPa 0,0 l/m 4,5 km/h (1 Bft) S 183 -4,2 C -3,1 C 8,0 km/h (2 Bft)
22.01.2019 07:35 -3,1 C 92 % 1015,2 hPa 0,0 l/m 4,5 km/h (1 Bft) S 182 -4,2 C -3,1 C 6,4 km/h (2 Bft)
22.01.2019 07:30 -3,1 C 92 % 1015,3 hPa 0,0 l/m 3,3 km/h (1 Bft) S 182 -4,2 C -3,1 C 6,4 km/h (2 Bft)
22.01.2019 07:25 -3,1 C 92 % 1015,3 hPa 0,0 l/m 5,5 km/h (1 Bft) S 182 -4,2 C -3,1 C 8,0 km/h (2 Bft)
22.01.2019 07:20 -3,1 C 92 % 1015,3 hPa 0,0 l/m 5,4 km/h (1 Bft) S 181 -4,2 C -3,1 C 8,0 km/h (2 Bft)
22.01.2019 07:15 -3,1 C 92 % 1015,4 hPa 0,0 l/m 5,2 km/h (1 Bft) S 183 -4,2 C -3,1 C 8,0 km/h (2 Bft)
22.01.2019 07:10 -3,1 C 92 % 1015,4 hPa 0,0 l/m 5,3 km/h (1 Bft) S 187 -4,2 C -3,1 C 8,0 km/h (2 Bft)
22.01.2019 07:05 -3,1 C 92 % 1015,5 hPa 0,0 l/m 6,3 km/h (2 Bft) S 178 -4,2 C -3,1 C 11,3 km/h (2 Bft)
22.01.2019 07:00 -3,1 C 92 % 1015,5 hPa 0,0 l/m 5,5 km/h (1 Bft) S 185 -4,2 C -3,1 C 8,0 km/h (2 Bft)
22.01.2019 06:55 -3,1 C 92 % 1015,5 hPa 0,0 l/m 4,9 km/h (1 Bft) S 184 -4,2 C -3,1 C 6,4 km/h (2 Bft)
22.01.2019 06:50 -3,1 C 92 % 1015,6 hPa 0,0 l/m 5,2 km/h (1 Bft) S 185 -4,2 C -3,1 C 6,4 km/h (2 Bft)
22.01.2019 06:45 -3,1 C 92 % 1015,6 hPa 0,0 l/m 4,3 km/h (1 Bft) S 185 -4,2 C -3,1 C 6,4 km/h (2 Bft)
22.01.2019 06:40 -3,1 C 92 % 1015,7 hPa 0,0 l/m 4,5 km/h (1 Bft) S 183 -4,2 C -3,1 C 6,4 km/h (2 Bft)
22.01.2019 06:35 -3,1 C 92 % 1015,8 hPa 0,0 l/m 1,3 km/h (1 Bft) S 183 -4,2 C -3,1 C 4,8 km/h (1 Bft)
22.01.2019 06:30 -3,1 C 92 % 1015,9 hPa 0,0 l/m 1,6 km/h (1 Bft) S 183 -4,2 C -3,1 C 3,2 km/h (1 Bft)
22.01.2019 06:25 -3,1 C 92 % 1016,0 hPa 0,0 l/m 2,0 km/h (1 Bft) S 183 -4,2 C -3,1 C 4,8 km/h (1 Bft)
22.01.2019 06:20 -3,1 C 93 % 1015,9 hPa 0,0 l/m 2,6 km/h (1 Bft) S 183 -4,1 C -3,1 C 4,8 km/h (1 Bft)
22.01.2019 06:15 -3,1 C 93 % 1015,9 hPa 0,0 l/m 1,4 km/h (1 Bft) S 183 -4,1 C -3,1 C 4,8 km/h (1 Bft)
22.01.2019 06:10 -3,1 C 92 % 1015,9 hPa 0,0 l/m 1,1 km/h (1 Bft) S 183 -4,2 C -3,1 C 3,2 km/h (1 Bft)
22.01.2019 06:05 -3,1 C 92 % 1015,9 hPa 0,0 l/m 0,4 km/h (0 Bft) S 183 -4,2 C -3,1 C 1,6 km/h (1 Bft)
22.01.2019 06:00 -3,2 C 92 % 1016,0 hPa 0,0 l/m 2,5 km/h (1 Bft) S 183 -4,3 C -3,2 C 4,8 km/h (1 Bft)
22.01.2019 05:55 -3,2 C 92 % 1015,9 hPa 0,0 l/m 2,3 km/h (1 Bft) S 183 -4,3 C -3,2 C 4,8 km/h (1 Bft)
22.01.2019 05:50 -3,2 C 92 % 1016,0 hPa 0,0 l/m 3,6 km/h (1 Bft) S 184 -4,3 C -3,2 C 4,8 km/h (1 Bft)
22.01.2019 05:45 -3,2 C 92 % 1015,9 hPa 0,0 l/m 5,1 km/h (1 Bft) S 184 -4,3 C -3,2 C 8,0 km/h (2 Bft)
22.01.2019 05:40 -3,2 C 92 % 1016,1 hPa 0,0 l/m 6,0 km/h (2 Bft) S 185 -4,3 C -3,2 C 8,0 km/h (2 Bft)
22.01.2019 05:35 -3,2 C 92 % 1016,1 hPa 0,0 l/m 5,3 km/h (1 Bft) S 181 -4,3 C -3,2 C 9,7 km/h (2 Bft)
22.01.2019 05:30 -3,2 C 92 % 1016,3 hPa 0,0 l/m 7,5 km/h (2 Bft) S 181 -4,3 C -4,5 C 11,3 km/h (2 Bft)
22.01.2019 05:25 -3,2 C 92 % 1016,4 hPa 0,0 l/m 8,0 km/h (2 Bft) S 186 -4,3 C -5,0 C 11,3 km/h (2 Bft)
22.01.2019 05:20 -3,2 C 92 % 1016,5 hPa 0,0 l/m 7,3 km/h (2 Bft) S 184 -4,3 C -4,2 C 11,3 km/h (2 Bft)
22.01.2019 05:15 -3,2 C 92 % 1016,6 hPa 0,0 l/m 6,1 km/h (2 Bft) S 187 -4,3 C -3,2 C 9,7 km/h (2 Bft)
22.01.2019 05:10 -3,2 C 92 % 1016,7 hPa 0,0 l/m 5,9 km/h (2 Bft) S 184 -4,3 C -3,2 C 8,0 km/h (2 Bft)
22.01.2019 05:05 -3,2 C 92 % 1016,7 hPa 0,0 l/m 5,9 km/h (2 Bft) S 184 -4,3 C -3,2 C 8,0 km/h (2 Bft)
22.01.2019 05:00 -3,2 C 92 % 1016,7 hPa 0,0 l/m 5,6 km/h (1 Bft) S 186 -4,3 C -3,2 C 8,0 km/h (2 Bft)
22.01.2019 04:55 -3,2 C 92 % 1016,8 hPa 0,0 l/m 6,7 km/h (2 Bft) S 185 -4,3 C -3,5 C 9,7 km/h (2 Bft)
22.01.2019 04:50 -3,2 C 92 % 1016,8 hPa 0,0 l/m 6,1 km/h (2 Bft) S 182 -4,3 C -3,2 C 8,0 km/h (2 Bft)
22.01.2019 04:45 -3,2 C 92 % 1016,9 hPa 0,0 l/m 5,0 km/h (1 Bft) S 182 -4,3 C -3,2 C 6,4 km/h (2 Bft)
22.01.2019 04:40 -3,2 C 92 % 1016,9 hPa 0,0 l/m 6,6 km/h (2 Bft) S 180 -4,3 C -3,4 C 11,3 km/h (2 Bft)
22.01.2019 04:35 -3,2 C 92 % 1017,0 hPa 0,0 l/m 6,7 km/h (2 Bft) S 175 -4,3 C -3,5 C 9,7 km/h (2 Bft)
22.01.2019 04:30 -3,2 C 92 % 1017,1 hPa 0,0 l/m 5,6 km/h (1 Bft) S 186 -4,3 C -3,2 C 8,0 km/h (2 Bft)
22.01.2019 04:25 -3,2 C 92 % 1017,1 hPa 0,0 l/m 6,8 km/h (2 Bft) S 185 -4,3 C -3,6 C 11,3 km/h (2 Bft)
22.01.2019 04:20 -3,2 C 92 % 1017,2 hPa 0,0 l/m 6,9 km/h (2 Bft) S 179 -4,3 C -3,8 C 9,7 km/h (2 Bft)
22.01.2019 04:15 -3,2 C 92 % 1017,2 hPa 0,0 l/m 5,1 km/h (1 Bft) S 182 -4,3 C -3,2 C 8,0 km/h (2 Bft)
22.01.2019 04:10 -3,2 C 92 % 1017,3 hPa 0,0 l/m 5,8 km/h (2 Bft) S 183 -4,3 C -3,2 C 8,0 km/h (2 Bft)
_ Min-Zeit 04:15 12:20 12:25 - 06:05 - - 03:50 10:05 06:05
Minimum _ -3,3 C 85 % 1011,8 hPa - 0,4 km/h (0 Bft) - - -4,3 C -7,2 C 1,6 km/h (1 Bft)
_ Max-Zeit 12:25 06:15 00:00 00:00 10:05 - - 01:05 12:20 11:45
Maximum _ -1,9 C 93 % 1020,5 hPa 0,0 l/m 10,9 km/h
S (2 Bft)
- - -3,8 C -2,0 C 19,3 km/h
S (3 Bft)
Durchschnitt _ -2,9 C 91 % 1016,2 hPa #0,0 l/m 5,6 km/h (1 Bft) S - -4,2 C -3,3 C 9,0 km/h (2 Bft)